Portada
METAR-TAF:

METAR-TAF

Aeropuertos :

Aeropuerto de Sant'Angelo Treviso

Treviso, Italia

latitud: 45-39N, longitud: 012-11E, altitud: 18 m

Observación

El informe se hizo hace 37 minutos, a las 02:20 UTC
Viento 4 kt del oeste
Temperatura 4°C
Humedad 87%
Presión 1008 hPa
Visibilidad 10 km o más

METAR: LIPH 270220Z AUTO 26004KT 9999 FEW170/// 04/02 Q1008

Hora: 03:57 (02:57 UTC)

Pronóstico

El informe se hizo hace 3 horas y 57 minutos, a las 23:00 UTC
Pronóstico válido del 27 a las 00 UTC al 27 a las 24 UTC
Viento 8 kt del oeste-suroeste
Visibilidad 10 km o más
Nubes dispersas a una altura de 3000 ft

TAF: LIPH 262300Z 2700/2724 25008KT 9999 SCT030

Observaciones y pronósticos meteorológicos de más de 4000 aeropuertos (mensajes METAR y TAF).

Los puntos amarillos y rojos representan las estaciones disponibles.

Ponga el ratón en el punto deseado para ver el nombre de la estación.

Haga clic para ver las observaciones y los pronósticos meteorológicos.

Para cambiar el mapa : haga clic en los botones verdes con una cruz de color negro para hacer un zoom, en el botón verde con un guión para alejar o en las flechas verdes para mapas adyacentes.


METAR-TAF: